Time;durP1;ratioP1;P1;durP2;ratioP2;P2;SDS_P1;SDS_P2;PMS_P1;PMS_P2;Temp;Humidity;BMP_temperature;BMP_pressure;BME280_temperature;BME280_humidity;BME280_pressure;Samples;Min_cycle;Max_cycle;Signal;HPM_P1;HPM_P2
2021/08/24 04:28:06;;;;;;;;;;;;;;;6.21;90.30;100348.63;5477077;23;19925;-89
2021/08/24 04:30:31;;;;;;;;;;;;;;;6.20;91.05;100349.50;4975687;28;19926;-88
2021/08/24 04:32:57;;;;;;;;;;;;;;;6.32;90.21;100356.34;4976166;28;19914;-87
2021/08/24 04:35:22;;;;;;;;;;;;;;;6.15;91.23;100362.75;4993572;28;20388;-88
2021/08/24 04:37:47;;;;;;;;;;;;;;;6.12;91.12;100359.28;4993324;28;19918;-87
2021/08/24 04:40:13;;;;;;;;;;;;;;;6.38;99.62;100364.13;4975881;28;20297;-87
2021/08/24 04:42:38;;;;;;;;;;;;;;;6.54;100.00;100362.09;4974555;28;19924;-88
2021/08/24 04:45:04;;;;;;;;;;;;;;;6.66;100.00;100367.16;4975811;28;19918;-89
2021/08/24 04:47:30;;;;;;;;;;;;;;;6.77;100.00;100364.34;4993428;28;19918;-88
2021/08/24 04:49:55;;;;;;;;;;;;;;;6.77;100.00;100363.50;4993505;28;19929;-89
2021/08/24 04:52:20;;;;;;;;;;;;;;;6.81;100.00;100362.53;4992737;28;19922;-90
2021/08/24 04:54:46;;;;;;;;;;;;;;;6.59;100.00;100360.28;4975101;28;19921;-89
2021/08/24 04:57:11;;;;;;;;;;;;;;;6.59;100.00;100367.28;4974303;28;20272;-90
2021/08/24 04:59:36;;;;;;;;;;;;;;;6.45;100.00;100371.03;4993179;28;20365;-88
2021/08/24 05:02:01;;;;;;;;;;;;;;;6.47;100.00;100368.38;4974678;28;19940;-89
2021/08/24 05:04:27;;;;;;;;;;;;;;;6.48;99.49;100370.13;4976024;28;19949;-90
2021/08/24 05:06:52;;;;;;;;;;;;;;;6.43;99.55;100379.84;4976078;28;19929;-91
2021/08/24 05:09:18;;;;;;;;;;;;;;;6.36;99.14;100379.94;4976089;28;19922;-89
2021/08/24 05:11:43;;;;;;;;;;;;;;;6.40;99.52;100380.78;4974616;28;19922;-89
2021/08/24 05:14:09;;;;;;;;;;;;;;;6.29;98.79;100383.59;4975675;28;19936;-90
2021/08/24 05:16:35;;;;;;;;;;;;;;;6.34;98.54;100387.00;4975837;28;19956;-90
2021/08/24 05:19:03;;;;;;;;;;;;;;;6.33;98.29;100381.75;4975579;28;20017;-90
2021/08/24 05:21:28;;;;;;;;;;;;;;;6.47;100.00;100397.34;4975562;28;19922;-90
2021/08/24 05:23:53;;;;;;;;;;;;;;;7.11;100.00;100389.22;4975814;28;19925;-89
2021/08/24 05:26:20;;;;;;;;;;;;;;;7.43;100.00;100386.78;4975674;28;20015;-89
2021/08/24 05:28:46;;;;;;;;;;;;;;;7.32;100.00;100394.03;4974477;28;20380;-91
2021/08/24 05:31:12;;;;;;;;;;;;;;;7.29;100.00;100399.38;4975847;28;20068;-93
2021/08/24 05:33:37;;;;;;;;;;;;;;;7.24;100.00;100398.59;4993084;28;19929;-89
2021/08/24 05:36:03;;;;;;;;;;;;;;;7.02;100.00;100406.94;4975550;28;20289;-89
2021/08/24 05:38:29;;;;;;;;;;;;;;;6.92;100.00;100405.34;4975347;28;19918;-89
2021/08/24 05:40:55;;;;;;;;;;;;;;;6.95;100.00;100407.94;4975504;28;19924;-89
2021/08/24 05:43:21;;;;;;;;;;;;;;;6.80;100.00;100403.81;4974137;28;19928;-88
2021/08/24 05:45:52;;;;;;;;;;;;;;;6.64;100.00;100410.25;4992941;28;19918;-89
2021/08/24 05:48:18;;;;;;;;;;;;;;;6.50;100.00;100408.69;4974759;28;19929;-92
2021/08/24 05:50:43;;;;;;;;;;;;;;;6.58;100.00;100412.97;4975504;28;20329;-92
2021/08/24 05:53:08;;;;;;;;;;;;;;;6.49;100.00;100408.72;4975369;28;19918;-91
2021/08/24 05:55:33;;;;;;;;;;;;;;;6.44;100.00;100406.16;4975315;28;19970;-90
2021/08/24 05:57:59;;;;;;;;;;;;;;;6.44;100.00;100405.28;4974180;28;20392;-91
2021/08/24 06:00:26;;;;;;;;;;;;;;;6.41;100.00;100407.97;4975365;28;19925;-90
2021/08/24 06:02:52;;;;;;;;;;;;;;;6.45;100.00;100412.31;4975312;28;19933;-90
2021/08/24 06:05:17;;;;;;;;;;;;;;;6.31;99.98;100413.38;4975838;28;19922;-89
2021/08/24 06:07:42;;;;;;;;;;;;;;;6.28;100.00;100408.16;4979257;28;19925;-92
2021/08/24 06:10:08;;;;;;;;;;;;;;;6.30;99.70;100409.03;4979253;28;19921;-88
2021/08/24 06:12:33;;;;;;;;;;;;;;;6.29;99.38;100406.41;4985799;28;19921;-88
2021/08/24 06:14:59;;;;;;;;;;;;;;;6.34;100.00;100413.31;4996635;28;20025;-85
2021/08/24 06:17:25;;;;;;;;;;;;;;;6.26;99.68;100409.09;4996292;28;20357;-92
2021/08/24 06:19:50;;;;;;;;;;;;;;;6.18;100.00;100410.06;4979090;28;20380;-91
2021/08/24 06:22:15;;;;;;;;;;;;;;;6.22;99.57;100408.25;4979127;28;19918;-92
2021/08/24 06:24:40;;;;;;;;;;;;;;;6.20;99.47;100414.44;4978745;28;19918;-87
2021/08/24 06:27:06;;;;;;;;;;;;;;;6.18;98.68;100417.94;4977655;28;19922;-87
2021/08/24 06:29:32;;;;;;;;;;;;;;;6.18;98.60;100419.72;4978622;28;20388;-88
2021/08/24 06:31:59;;;;;;;;;;;;;;;6.20;98.62;100417.94;4978987;28;19929;-87
2021/08/24 06:34:26;;;;;;;;;;;;;;;6.19;97.61;100424.09;4973593;28;19922;-87
2021/08/24 06:36:52;;;;;;;;;;;;;;;6.20;97.69;100417.94;4978486;28;19949;-92
2021/08/24 06:39:17;;;;;;;;;;;;;;;6.14;97.88;100423.28;4978463;28;20016;-92
2021/08/24 06:41:43;;;;;;;;;;;;;;;6.20;98.23;100415.31;4995532;28;20020;-87
2021/08/24 06:44:09;;;;;;;;;;;;;;;6.14;97.22;100420.66;4995566;28;19933;-87
2021/08/24 06:46:34;;;;;;;;;;;;;;;6.11;98.04;100425.94;4996027;28;19929;-92
2021/08/24 06:48:59;;;;;;;;;;;;;;;6.14;98.11;100418.91;4978721;28;19922;-88
2021/08/24 06:51:25;;;;;;;;;;;;;;;6.22;97.77;100417.91;4978509;28;20343;-88
2021/08/24 06:53:50;;;;;;;;;;;;;;;6.18;96.38;100422.34;4995727;28;19921;-88
2021/08/24 06:56:15;;;;;;;;;;;;;;;6.14;97.22;100415.38;4995596;28;19941;-91
2021/08/24 06:58:42;;;;;;;;;;;;;;;6.08;98.00;100426.00;4994446;28;19930;-90
2021/08/24 07:01:12;;;;;;;;;;;;;;;6.12;98.34;100417.19;4995409;28;19918;-88
2021/08/24 07:57:38;;;;;;;;;;;;;;;5.92;98.43;100404.25;5281987;23;19976;-89
2021/08/24 08:00:04;;;;;;;;;;;;;;;5.88;98.30;100402.59;4957661;28;19957;-88
2021/08/24 08:02:29;;;;;;;;;;;;;;;5.87;97.14;100406.97;4957842;28;19918;-87
2021/08/24 08:04:54;;;;;;;;;;;;;;;5.89;97.31;100401.66;4958098;28;20380;-89
2021/08/24 08:07:19;;;;;;;;;;;;;;;5.83;97.19;100405.28;4958618;28;19926;-88
2021/08/24 08:09:45;;;;;;;;;;;;;;;5.90;98.54;100411.31;4975735;28;20384;-90
2021/08/24 08:12:10;;;;;;;;;;;;;;;5.89;97.57;100409.56;4957328;28;19944;-90
2021/08/24 08:14:37;;;;;;;;;;;;;;;6.05;97.53;100410.25;4957311;28;19966;-90
2021/08/24 08:17:02;;;;;;;;;;;;;;;5.93;97.70;100406.88;4958316;28;20012;-90
2021/08/24 08:19:27;;;;;;;;;;;;;;;6.11;99.82;100404.91;4957711;28;20021;-90
2021/08/24 08:21:53;;;;;;;;;;;;;;;6.14;98.60;100405.75;4957969;28;19925;-91
2021/08/24 08:24:18;;;;;;;;;;;;;;;5.97;98.14;100403.34;4957865;28;19926;-90
2021/08/24 08:26:45;;;;;;;;;;;;;;;5.93;98.79;100404.25;4957240;28;19926;-91
2021/08/24 08:29:12;;;;;;;;;;;;;;;6.02;97.16;100410.31;4975073;28;19925;-90
2021/08/24 08:31:39;;;;;;;;;;;;;;;5.99;97.37;100412.09;4957380;28;19918;-91
2021/08/24 08:34:05;;;;;;;;;;;;;;;6.22;99.13;100402.97;4973692;28;20432;-90
2021/08/24 08:36:30;;;;;;;;;;;;;;;6.02;98.41;100415.59;4956545;28;19926;-90
2021/08/24 08:38:56;;;;;;;;;;;;;;;6.11;98.62;100405.78;4956754;28;19922;-90
2021/08/24 08:41:26;;;;;;;;;;;;;;;6.08;97.93;100404.94;4973987;28;19918;-89
2021/08/24 08:44:03;;;;;;;;;;;;;;;6.09;97.88;100394.41;4973243;28;19918;-90
2021/08/24 08:46:43;;;;;;;;;;;;;;;6.02;97.19;100399.81;4972884;28;20328;-90
2021/08/24 08:49:29;;;;;;;;;;;;;;;5.98;97.23;100404.22;4956258;28;19969;-88
2021/08/24 08:52:06;;;;;;;;;;;;;;;5.93;97.19;100400.75;4973381;28;19918;-90
2021/08/24 08:54:45;;;;;;;;;;;;;;;5.95;97.02;100393.69;4974678;28;20868;-90
2021/08/24 08:57:15;;;;;;;;;;;;;;;6.18;98.51;100388.16;4956063;28;19918;-89
2021/08/24 08:59:43;;;;;;;;;;;;;;;6.04;97.16;100390.13;4956425;28;20385;-90
2021/08/24 09:02:19;;;;;;;;;;;;;;;6.22;98.07;100389.81;4956783;28;19922;-90
2021/08/24 09:04:47;;;;;;;;;;;;;;;6.28;99.09;100381.84;4973095;28;20396;-88
2021/08/24 09:07:31;;;;;;;;;;;;;;;6.50;100.00;100374.47;4973887;28;19918;-91
2021/08/24 09:09:56;;;;;;;;;;;;;;;6.60;100.00;100387.47;4974050;28;19927;-90
2021/08/24 09:12:23;;;;;;;;;;;;;;;6.44;99.72;100386.88;4955204;28;19919;-89
2021/08/24 09:14:52;;;;;;;;;;;;;;;6.44;99.32;100384.22;4972113;28;19922;-91
2021/08/24 09:17:27;;;;;;;;;;;;;;;6.52;99.49;100384.97;4971754;28;20331;-90
2021/08/24 09:19:59;;;;;;;;;;;;;;;6.63;99.41;100383.03;4972486;28;19924;-91
2021/08/24 09:22:27;;;;;;;;;;;;;;;6.54;98.27;100380.53;4956531;28;19997;-91
2021/08/24 09:24:52;;;;;;;;;;;;;;;6.57;98.84;100374.38;4957162;28;20005;-90
2021/08/24 09:27:23;;;;;;;;;;;;;;;6.43;99.57;100369.31;4956060;28;20008;-90
2021/08/24 09:29:50;;;;;;;;;;;;;;;6.62;100.00;100372.50;4956949;28;20273;-91
2021/08/24 09:32:26;;;;;;;;;;;;;;;6.58;100.00;100374.34;4957232;28;19925;-91
2021/08/24 09:34:58;;;;;;;;;;;;;;;6.55;98.94;100374.38;4972435;28;19918;-89
2021/08/24 09:37:23;;;;;;;;;;;;;;;6.46;97.68;100374.53;4972218;28;20412;-90
2021/08/24 09:39:48;;;;;;;;;;;;;;;6.70;100.00;100363.59;4956431;28;19918;-90
2021/08/24 09:42:15;;;;;;;;;;;;;;;6.76;99.19;100373.13;4955839;28;20399;-91
2021/08/24 09:44:40;;;;;;;;;;;;;;;6.66;98.57;100372.44;4956713;28;19973;-91
2021/08/24 09:47:16;;;;;;;;;;;;;;;6.48;98.35;100368.38;4974058;28;19918;-89
2021/08/24 09:49:42;;;;;;;;;;;;;;;6.58;98.33;100366.44;4971899;28;20269;-91
2021/08/24 09:52:19;;;;;;;;;;;;;;;6.69;99.08;100361.84;4956363;28;20421;-90
2021/08/24 09:54:53;;;;;;;;;;;;;;;6.75;99.11;100368.78;4971223;28;20362;-90
2021/08/24 09:57:31;;;;;;;;;;;;;;;6.54;97.55;100357.72;4954395;28;20012;-89
2021/08/24 09:59:58;;;;;;;;;;;;;;;6.45;98.26;100362.28;4969697;28;20306;-90
2021/08/24 10:02:27;;;;;;;;;;;;;;;6.41;97.20;100355.31;4971821;28;20005;-90
2021/08/24 10:04:54;;;;;;;;;;;;;;;6.34;97.12;100360.69;4973904;28;19972;-89
2021/08/24 10:07:39;;;;;;;;;;;;;;;6.39;97.44;100357.13;4955730;28;20423;-89
2021/08/24 10:10:09;;;;;;;;;;;;;;;6.32;96.71;100364.25;4972470;28;20006;-88
2021/08/24 10:12:34;;;;;;;;;;;;;;;6.30;96.33;100364.28;4969856;28;19957;-88
2021/08/24 10:15:19;;;;;;;;;;;;;;;6.49;98.02;100358.69;4955488;28;19980;-89
2021/08/24 10:17:45;;;;;;;;;;;;;;;6.40;96.47;100353.56;4970281;28;20365;-88
2021/08/24 10:20:25;;;;;;;;;;;;;;;6.47;97.40;100357.84;4972953;28;19918;-88
2021/08/24 10:22:51;;;;;;;;;;;;;;;6.47;97.87;100349.97;4972749;28;19918;-89
2021/08/24 10:25:22;;;;;;;;;;;;;;;6.70;98.34;100357.44;4955608;28;19942;-88
2021/08/24 10:28:07;;;;;;;;;;;;;;;6.73;100.00;100349.47;4971554;28;19918;-89
2021/08/24 10:30:47;;;;;;;;;;;;;;;6.90;100.00;100349.19;4955535;28;19929;-90
2021/08/24 10:33:18;;;;;;;;;;;;;;;6.75;98.05;100347.72;4971607;28;20390;-88
2021/08/24 10:35:50;;;;;;;;;;;;;;;6.66;98.80;100345.25;4972833;28;19926;-89
2021/08/24 10:38:16;;;;;;;;;;;;;;;6.61;98.34;100347.09;4973017;28;19946;-89
2021/08/24 10:40:45;;;;;;;;;;;;;;;6.64;97.58;100350.53;4954819;28;19926;-89
2021/08/24 10:43:10;;;;;;;;;;;;;;;6.67;97.22;100352.22;4953842;28;19918;-89
2021/08/24 10:45:39;;;;;;;;;;;;;;;6.60;97.47;100333.03;4955441;28;19922;-89
2021/08/24 10:48:05;;;;;;;;;;;;;;;6.70;97.75;100347.78;4972582;28;20354;-89
2021/08/24 10:50:30;;;;;;;;;;;;;;;6.73;99.20;100347.75;4955408;28;19922;-89
2021/08/24 10:52:59;;;;;;;;;;;;;;;6.97;99.18;100342.03;4957021;28;19984;-90
2021/08/24 10:55:29;;;;;;;;;;;;;;;6.69;98.14;100346.03;4959348;28;19918;-89
2021/08/24 10:57:55;;;;;;;;;;;;;;;6.67;97.73;100332.06;4953282;28;19939;-91
2021/08/24 11:00:30;;;;;;;;;;;;;;;6.64;96.94;100318.06;4960818;28;19929;-92
2021/08/24 11:03:33;;;;;;;;;;;;;;;6.52;97.89;100330.53;4976612;28;19918;-93
2021/08/24 11:06:36;;;;;;;;;;;;;;;6.61;97.83;100319.00;4900285;29;19923;-94
2021/08/24 11:09:10;;;;;;;;;;;;;;;6.68;96.99;100323.22;4875273;29;19926;-93
2021/08/24 11:11:40;;;;;;;;;;;;;;;6.44;96.88;100321.91;4879845;29;19920;-94
2021/08/24 11:14:17;;;;;;;;;;;;;;;6.50;97.88;100318.31;4924151;28;19922;-92
2021/08/24 11:16:49;;;;;;;;;;;;;;;6.46;96.36;100317.50;4957287;28;19925;-93
2021/08/24 11:19:29;;;;;;;;;;;;;;;6.58;98.25;100318.19;4974559;28;19918;-93
2021/08/24 11:22:09;;;;;;;;;;;;;;;6.48;97.26;100318.34;4970270;28;19918;-93
2021/08/24 11:24:57;;;;;;;;;;;;;;;;;;;;;
2021/08/24 11:27:44;;;;;;;;;;;;;;;6.66;98.87;100318.91;4976612;28;19918;-92
2021/08/24 11:30:30;;;;;;;;;;;;;;;6.52;97.27;100320.00;4976123;28;19926;-91
2021/08/24 11:33:06;;;;;;;;;;;;;;;6.42;95.80;100318.44;4959905;28;20017;-93
2021/08/24 11:35:40;;;;;;;;;;;;;;;6.52;95.76;100316.50;4975638;28;20364;-92
2021/08/24 11:38:11;;;;;;;;;;;;;;;6.32;95.59;100315.09;4959921;28;20068;-91
2021/08/24 11:40:46;;;;;;;;;;;;;;;6.27;95.43;100319.59;4960264;28;19922;-93
2021/08/24 11:43:24;;;;;;;;;;;;;;;6.31;95.75;100320.41;4958516;28;19921;-92
2021/08/24 11:46:04;;;;;;;;;;;;;;;6.38;96.25;100318.53;4959879;28;19924;-92
2021/08/24 11:48:34;;;;;;;;;;;;;;;6.29;95.70;100327.44;4975948;28;19969;-92
2021/08/24 11:51:08;;;;;;;;;;;;;;;6.34;95.51;100326.47;4959569;28;19927;-93
2021/08/24 11:53:42;;;;;;;;;;;;;;;6.41;96.15;100321.97;4952194;28;19914;-92
2021/08/24 11:56:10;;;;;;;;;;;;;;;6.34;96.60;100323.84;4958900;28;20683;-93
2021/08/24 11:58:46;;;;;;;;;;;;;;;6.27;95.44;100319.59;4958076;28;19923;-92
2021/08/24 12:01:16;;;;;;;;;;;;;;;6.38;96.32;100318.53;4974139;28;20282;-92
2021/08/24 12:03:47;;;;;;;;;;;;;;;6.43;95.15;100316.66;4973836;28;19976;-92
2021/08/24 12:06:28;;;;;;;;;;;;;;;6.41;95.49;100310.56;4975503;28;19918;-92
2021/08/24 12:08:56;;;;;;;;;;;;;;;6.42;96.13;100312.31;4973982;28;19926;-92
2021/08/24 12:11:23;;;;;;;;;;;;;;;6.44;95.58;100307.88;4958336;28;19918;-91
2021/08/24 12:13:52;;;;;;;;;;;;;;;6.59;98.20;100309.38;4959562;28;19925;-91
2021/08/24 12:16:21;;;;;;;;;;;;;;;6.86;98.54;100316.78;4959057;28;19926;-92
2021/08/24 12:19:12;;;;;;;;;;;;;;;6.89;97.63;100311.44;4959031;28;19922;-91
2021/08/24 12:21:44;;;;;;;;;;;;;;;6.65;97.33;100312.78;4954143;28;19923;-92
2021/08/24 12:24:24;;;;;;;;;;;;;;;6.54;95.81;100312.09;4958806;28;19918;-91
2021/08/24 12:26:50;;;;;;;;;;;;;;;6.77;96.90;100313.44;4958169;28;19918;-90
2021/08/24 12:29:41;;;;;;;;;;;;;;;6.48;95.34;100317.47;4958709;28;19922;-91
2021/08/24 12:32:09;;;;;;;;;;;;;;;6.50;95.62;100313.06;4952386;28;20362;-90
2021/08/24 12:34:34;;;;;;;;;;;;;;;6.70;96.08;100310.94;4972357;28;19924;-91
2021/08/24 12:37:03;;;;;;;;;;;;;;;6.64;95.91;100310.19;4958392;28;19918;-90
2021/08/24 12:39:32;;;;;;;;;;;;;;;6.66;95.91;100309.22;4959025;28;19918;-91
2021/08/24 12:42:28;;;;;;;;;;;;;;;6.63;97.13;100308.44;4958313;28;19921;-92
2021/08/24 12:44:57;;;;;;;;;;;;;;;6.40;95.48;100301.81;4920932;28;19973;-91
2021/08/24 12:47:24;;;;;;;;;;;;;;;6.51;95.92;100305.13;4958703;28;20008;-92
2021/08/24 12:49:50;;;;;;;;;;;;;;;6.70;97.63;100310.03;4958665;28;19918;-90
2021/08/24 12:52:18;;;;;;;;;;;;;;;6.59;95.49;100312.88;4958740;28;19929;-91
2021/08/24 12:54:44;;;;;;;;;;;;;;;6.56;95.50;100318.22;4956101;28;20305;-92
2021/08/24 12:57:11;;;;;;;;;;;;;;;6.80;97.11;100316.88;4956778;28;19922;-91
2021/08/24 12:59:44;;;;;;;;;;;;;;;7.19;99.48;100322.25;4958064;28;20340;-92
2021/08/24 13:02:13;;;;;;;;;;;;;;;6.97;98.14;100319.19;4958052;28;19918;-91
2021/08/24 13:04:45;;;;;;;;;;;;;;;6.85;97.07;100319.44;4958531;28;19918;-91
2021/08/24 13:07:19;;;;;;;;;;;;;;;6.64;97.15;100318.06;4957585;28;19921;-91
2021/08/24 13:09:47;;;;;;;;;;;;;;;6.74;97.79;100317.00;4971092;28;19918;-89
2021/08/24 13:12:14;;;;;;;;;;;;;;;6.83;96.83;100324.72;4957415;28;19919;-91
2021/08/24 13:14:46;;;;;;;;;;;;;;;6.80;96.24;100330.06;4974572;28;19922;-90
2021/08/24 13:17:27;;;;;;;;;;;;;;;6.82;96.69;100320.34;4957554;28;19926;-91
2021/08/24 13:19:55;;;;;;;;;;;;;;;6.79;96.29;100323.03;4956601;28;20398;-91
2021/08/24 13:22:46;;;;;;;;;;;;;;;6.65;96.05;100318.06;4972733;28;19969;-90
2021/08/24 13:25:15;;;;;;;;;;;;;;;6.88;98.49;100319.38;4950238;28;19922;-90
2021/08/24 13:27:46;;;;;;;;;;;;;;;6.72;98.08;100318.78;4956080;28;19919;-91
2021/08/24 13:30:15;;;;;;;;;;;;;;;6.97;98.59;100319.19;4972756;28;19922;-92
2021/08/24 13:32:44;;;;;;;;;;;;;;;6.78;97.33;100312.53;4956663;28;19918;-91
2021/08/24 13:35:20;;;;;;;;;;;;;;;6.90;97.42;100314.94;4972443;28;19945;-90
2021/08/24 13:37:49;;;;;;;;;;;;;;;6.96;98.05;100312.19;4990014;28;19954;-91
2021/08/24 13:40:24;;;;;;;;;;;;;;;7.05;98.81;100312.00;4957741;28;19919;-92
2021/08/24 13:42:49;;;;;;;;;;;;;;;7.38;100.00;100309.56;4974021;28;19918;-91
2021/08/24 13:45:25;;;;;;;;;;;;;;;7.25;99.40;100313.38;4957739;28;20349;-91
2021/08/24 13:47:52;;;;;;;;;;;;;;;7.15;99.43;100311.81;4957565;28;19919;-91
2021/08/24 13:50:30;;;;;;;;;;;;;;;7.02;98.50;100304.16;4971992;28;20016;-91
2021/08/24 13:53:00;;;;;;;;;;;;;;;7.15;100.00;100306.53;4957144;28;19918;-92
2021/08/24 13:55:27;;;;;;;;;;;;;;;7.20;99.25;100308.19;4957330;28;19922;-92
2021/08/24 13:57:52;;;;;;;;;;;;;;;7.15;100.00;100311.81;4968197;28;20293;-92
2021/08/24 14:00:19;;;;;;;;;;;;;;;7.33;99.80;100305.31;4947562;29;19920;-92
2021/08/24 14:02:49;;;;;;;;;;;;;;;7.12;99.06;100304.00;4948081;29;20297;-92
2021/08/24 14:05:15;;;;;;;;;;;;;;;7.35;99.65;100299.06;4944424;29;19918;-90
2021/08/24 14:07:41;;;;;;;;;;;;;;;7.39;100.00;100299.91;4947195;29;19977;-91
2021/08/24 14:10:24;;;;;;;;;;;;;;;7.32;100.00;100307.06;4955251;28;19925;-90
2021/08/24 14:12:57;;;;;;;;;;;;;;;7.45;100.00;100305.00;4942321;28;20373;-89
2021/08/24 14:15:27;;;;;;;;;;;;;;;7.24;99.76;100306.34;4955124;28;19925;-91
2021/08/24 14:17:57;;;;;;;;;;;;;;;7.18;99.60;100299.44;4945332;29;19922;-92
2021/08/24 14:20:34;;;;;;;;;;;;;;;7.15;98.39;100301.25;4945622;29;20314;-91
2021/08/24 14:23:07;;;;;;;;;;;;;;;7.02;98.61;100300.66;4944221;28;20321;-90
2021/08/24 14:25:36;;;;;;;;;;;;;;;7.34;100.00;100314.94;4944778;29;19986;-93
2021/08/24 14:28:04;;;;;;;;;;;;;;;7.46;99.80;100306.75;4948045;29;19934;-92
2021/08/24 14:30:29;;;;;;;;;;;;;;;7.31;99.27;100310.59;4946308;29;20378;-92
2021/08/24 14:32:54;;;;;;;;;;;;;;;7.11;98.53;100307.50;4948113;29;19921;-92
2021/08/24 14:35:39;;;;;;;;;;;;;;;7.07;98.27;100315.47;4952291;29;20009;-92
2021/08/24 14:38:04;;;;;;;;;;;;;;;6.97;98.16;100307.78;4956380;29;19950;-93
2021/08/24 14:40:34;;;;;;;;;;;;;;;7.14;99.09;100320.63;4947809;29;19973;-89
2021/08/24 14:43:01;;;;;;;;;;;;;;;6.95;98.57;100307.81;4972813;28;20396;-93
2021/08/24 14:45:30;;;;;;;;;;;;;;;7.05;99.16;100309.38;4947195;29;19918;-92
2021/08/24 14:47:56;;;;;;;;;;;;;;;7.02;100.00;100312.06;4970983;28;20293;-93
2021/08/24 14:50:31;;;;;;;;;;;;;;;6.82;97.77;100314.22;4951245;29;19919;-93
2021/08/24 14:53:00;;;;;;;;;;;;;;;6.96;100.00;100314.81;4971914;28;19938;-93
2021/08/24 14:55:35;;;;;;;;;;;;;;;7.19;99.41;100308.22;4971676;28;19923;-92
2021/08/24 14:58:03;;;;;;;;;;;;;;;6.99;98.28;100306.88;4971544;28;19974;-93
2021/08/24 15:00:34;;;;;;;;;;;;;;;10.62;95.14;100305.88;4949145;29;19926;-94
2021/08/24 15:03:01;;;;;;;;;;;;;;;8.11;97.65;100321.97;4949210;29;19919;-92
2021/08/24 15:05:48;;;;;;;;;;;;;;;7.68;99.55;100317.72;4949533;29;19919;-91
2021/08/24 15:08:26;;;;;;;;;;;;;;;7.45;98.44;100308.53;4971935;28;19977;-92
2021/08/24 15:11:03;;;;;;;;;;;;;;;7.27;97.83;100312.44;4947686;28;20012;-89
2021/08/24 15:13:30;;;;;;;;;;;;;;;7.20;97.69;100308.19;4946644;29;20374;-93
2021/08/24 15:15:55;;;;;;;;;;;;;;;7.38;99.44;100319.25;4952573;29;19922;-91
2021/08/24 15:18:44;;;;;;;;;;;;;;;7.51;100.00;100319.84;4948747;28;19933;-91
2021/08/24 15:21:10;;;;;;;;;;;;;;;7.63;100.00;100316.94;4938501;29;19998;-91
2021/08/24 15:23:36;;;;;;;;;;;;;;;7.36;97.77;100311.38;4945700;29;19919;-92
2021/08/24 15:26:04;;;;;;;;;;;;;;;7.30;98.83;100314.13;4950222;29;19963;-92
2021/08/24 15:28:30;;;;;;;;;;;;;;;7.45;99.76;100308.53;4956857;28;20598;-92
2021/08/24 15:31:06;;;;;;;;;;;;;;;7.33;98.51;100311.44;4971347;28;20286;-91
2021/08/24 15:33:49;;;;;;;;;;;;;;;7.27;98.56;100315.09;4956685;29;19993;-90
2021/08/24 15:36:15;;;;;;;;;;;;;;;7.09;98.41;100321.56;4946658;29;19922;-90
2021/08/24 15:38:42;;;;;;;;;;;;;;;7.25;99.30;100318.63;4956131;28;20378;-89
2021/08/24 15:41:13;;;;;;;;;;;;;;;7.01;97.76;100315.59;4969767;28;19926;-89
2021/08/24 15:43:39;;;;;;;;;;;;;;;7.15;98.63;100315.31;4970738;28;19937;-91
2021/08/24 15:46:04;;;;;;;;;;;;;;;7.31;100.00;100318.50;4947669;29;19923;-92
2021/08/24 15:48:30;;;;;;;;;;;;;;;7.14;98.69;100315.34;4949093;28;19918;-90
2021/08/24 15:50:58;;;;;;;;;;;;;;;7.15;98.12;100315.31;4946301;28;19919;-92
2021/08/24 15:53:23;;;;;;;;;;;;;;;7.21;98.14;100316.94;4946773;29;19925;-90
2021/08/24 15:55:52;;;;;;;;;;;;;;;7.23;100.00;100318.66;4946511;29;19919;-89
2021/08/24 15:58:17;;;;;;;;;;;;;;;7.01;97.96;100320.88;4946313;28;19927;-90
2021/08/24 16:00:43;;;;;;;;;;;;;;;7.13;98.90;100321.50;4947531;29;19926;-90
2021/08/24 16:03:10;;;;;;;;;;;;;;;7.44;100.00;100327.88;4944072;29;19970;-93
2021/08/24 16:05:36;;;;;;;;;;;;;;;7.22;99.05;100323.97;4948052;29;19918;-91
2021/08/24 16:08:01;;;;;;;;;;;;;;;7.50;100.00;100318.09;4948696;29;19940;-91
2021/08/24 16:10:28;;;;;;;;;;;;;;;7.27;99.00;100328.25;4946138;29;19923;-91
2021/08/24 16:12:54;;;;;;;;;;;;;;;7.16;98.85;100318.81;4944151;29;19919;-91
2021/08/24 16:15:19;;;;;;;;;;;;;;;7.15;98.57;100322.34;4956316;28;19996;-89
2021/08/24 16:17:45;;;;;;;;;;;;;;;7.16;100.00;100324.09;4946305;29;19918;-91
2021/08/24 16:20:10;;;;;;;;;;;;;;;7.18;99.87;100322.28;4945917;29;19966;-91
2021/08/24 16:22:40;;;;;;;;;;;;;;;7.20;99.79;100328.41;4945765;29;20390;-90
2021/08/24 16:25:18;;;;;;;;;;;;;;;6.99;98.44;100325.31;4970265;28;19918;-91
2021/08/24 16:27:43;;;;;;;;;;;;;;;6.98;98.53;100320.91;4942376;29;19919;-91
2021/08/24 16:30:10;;;;;;;;;;;;;;;7.12;98.60;100333.84;4946471;29;19918;-90
2021/08/24 16:32:39;;;;;;;;;;;;;;;7.13;99.84;100324.16;4944954;29;19922;-91
2021/08/24 16:35:05;;;;;;;;;;;;;;;7.15;99.93;100325.88;4945205;29;20017;-90
2021/08/24 16:37:31;;;;;;;;;;;;;;;7.01;98.21;100323.50;4970296;28;19923;-91
2021/08/24 16:39:57;;;;;;;;;;;;;;;6.93;98.46;100325.41;4943648;28;19924;-90
2021/08/24 16:42:23;;;;;;;;;;;;;;;7.01;99.71;100320.88;4944328;29;19923;-90
2021/08/24 16:44:51;;;;;;;;;;;;;;;7.00;98.76;100326.16;4947641;29;19925;-91
2021/08/24 16:47:17;;;;;;;;;;;;;;;6.89;97.96;100324.63;4946168;29;19918;-90
2021/08/24 16:49:42;;;;;;;;;;;;;;;6.92;98.00;100326.31;4945527;29;20018;-90
2021/08/24 16:52:10;;;;;;;;;;;;;;;6.96;98.64;100320.09;4969837;28;19926;-90
2021/08/24 16:54:40;;;;;;;;;;;;;;;7.06;99.33;100318.13;4945057;29;20275;-90
2021/08/24 16:57:05;;;;;;;;;;;;;;;7.03;98.84;100324.31;4952969;29;19966;-90
2021/08/24 16:59:31;;;;;;;;;;;;;;;6.97;99.48;100318.31;4945461;29;19930;-90
2021/08/24 17:01:56;;;;;;;;;;;;;;;7.01;98.97;100317.38;4944482;29;19929;-91
2021/08/24 17:04:24;;;;;;;;;;;;;;;6.95;97.92;100320.97;4955587;28;20022;-91
2021/08/24 17:06:49;;;;;;;;;;;;;;;7.04;99.04;100327.84;4954254;28;20017;-91
2021/08/24 17:09:15;;;;;;;;;;;;;;;6.99;98.71;100327.94;4945576;29;20501;-91
2021/08/24 17:11:40;;;;;;;;;;;;;;;7.04;98.84;100326.06;4954405;28;19966;-90
2021/08/24 17:14:08;;;;;;;;;;;;;;;7.04;99.78;100326.06;4950088;29;19966;-91
2021/08/24 17:16:38;;;;;;;;;;;;;;;7.15;99.75;100327.63;4946584;29;19925;-90
2021/08/24 17:19:17;;;;;;;;;;;;;;;;;;;;;
2021/08/24 17:21:43;;;;;;;;;;;;;;;7.31;98.91;100329.06;4953017;28;20353;-92
2021/08/24 17:24:12;;;;;;;;;;;;;;;7.09;97.92;100334.75;4944376;29;20017;-91
2021/08/24 17:26:37;;;;;;;;;;;;;;;7.26;99.10;100337.06;4947259;29;19922;-92
2021/08/24 17:29:04;;;;;;;;;;;;;;;7.16;98.45;100329.38;4943639;29;20267;-92
2021/08/24 17:31:29;;;;;;;;;;;;;;;7.08;98.46;100338.31;4945107;29;19922;-92
2021/08/24 17:33:54;;;;;;;;;;;;;;;6.93;98.00;100338.59;4948719;29;19925;-91
2021/08/24 17:36:22;;;;;;;;;;;;;;;7.02;98.32;100337.53;4946524;29;19952;-91
2021/08/24 17:38:50;;;;;;;;;;;;;;;7.02;97.84;100338.41;4945660;29;19929;-91
2021/08/24 17:41:25;;;;;;;;;;;;;;;6.96;97.56;100346.44;4950411;29;19918;-92
2021/08/24 17:43:54;;;;;;;;;;;;;;;6.99;97.73;100346.38;4947410;29;19918;-92
2021/08/24 17:46:19;;;;;;;;;;;;;;;6.94;98.71;100345.63;4951387;29;20006;-92
2021/08/24 17:48:47;;;;;;;;;;;;;;;6.87;97.37;100346.59;4941120;29;19970;-91
2021/08/24 17:51:18;;;;;;;;;;;;;;;6.83;97.51;100343.16;4943488;29;19919;-91
2021/08/24 17:53:49;;;;;;;;;;;;;;;6.98;98.04;100343.78;4970194;28;19922;-93
2021/08/24 17:56:16;;;;;;;;;;;;;;;6.98;97.95;100349.03;4946553;29;20045;-91
2021/08/24 17:58:42;;;;;;;;;;;;;;;6.88;97.74;100343.09;4949755;29;19927;-91
2021/08/24 18:01:07;;;;;;;;;;;;;;;6.93;97.73;100340.38;4954368;28;19934;-91
2021/08/24 18:03:33;;;;;;;;;;;;;;;6.90;99.01;100343.91;4958103;29;19919;-91
2021/08/24 18:06:00;;;;;;;;;;;;;;;7.05;99.44;100335.72;4958068;29;19958;-92
2021/08/24 18:08:26;;;;;;;;;;;;;;;7.15;98.48;100343.44;4955048;29;20052;-92
2021/08/24 18:10:56;;;;;;;;;;;;;;;7.03;98.46;100332.22;4957620;29;20006;-93
2021/08/24 18:13:22;;;;;;;;;;;;;;;6.92;98.45;100339.47;4955906;29;19919;-92
2021/08/24 18:15:47;;;;;;;;;;;;;;;6.83;97.55;100335.28;4958350;29;19922;-94
2021/08/24 18:18:16;;;;;;;;;;;;;;;6.81;97.82;100339.72;4957927;29;20370;-92
2021/08/24 18:20:41;;;;;;;;;;;;;;;6.83;97.50;100340.53;4973461;28;20002;-91